createdAt,value
2022-09-01T00:02:46.076Z,19.80
2022-09-01T00:12:47.768Z,19.80
2022-09-01T00:22:49.586Z,19.60
2022-09-01T00:32:51.261Z,19.50
2022-09-01T00:42:53.793Z,19.40
2022-09-01T00:52:55.929Z,19.30
2022-09-01T01:02:58.365Z,19.20
2022-09-01T01:13:04.608Z,19.10
2022-09-01T01:23:06.316Z,19.10
2022-09-01T01:33:08.428Z,19.00
2022-09-01T01:43:11.519Z,18.90
2022-09-01T01:53:13.712Z,18.80
2022-09-01T02:03:21.930Z,18.70
2022-09-01T02:13:30.928Z,18.60
2022-09-01T02:23:33.751Z,18.50
2022-09-01T02:33:37.239Z,18.40
2022-09-01T02:43:39.977Z,18.30
2022-09-01T02:53:42.776Z,18.10
2022-09-01T03:03:44.452Z,18.00
2022-09-01T03:13:46.201Z,17.90
2022-09-01T03:23:51.471Z,17.80
2022-09-01T03:33:54.475Z,17.70
2022-09-01T03:43:58.858Z,17.80
2022-09-01T03:54:01.147Z,17.70
2022-09-01T04:04:04.716Z,17.60
2022-09-01T04:14:06.730Z,17.50
2022-09-01T04:24:10.335Z,17.50
2022-09-01T04:34:13.743Z,17.40
2022-09-01T04:44:18.941Z,17.40
2022-09-01T04:54:22.597Z,17.30
2022-09-01T05:04:27.701Z,17.30
2022-09-01T05:14:29.601Z,17.30
2022-09-01T05:24:32.386Z,17.40
2022-09-01T05:34:37.392Z,17.50
2022-09-01T05:44:44.888Z,17.50
2022-09-01T05:54:48.003Z,17.60
2022-09-01T06:04:56.885Z,17.80
2022-09-01T06:14:58.968Z,17.80
2022-09-01T06:25:03.011Z,17.90
2022-09-01T06:35:08.619Z,18.00
2022-09-01T06:45:11.250Z,18.10
2022-09-01T06:55:14.328Z,18.30
2022-09-01T07:26:08.359Z,18.80
2022-09-01T07:36:26.839Z,19.00
2022-09-01T07:46:39.836Z,19.40
2022-09-01T07:56:41.769Z,19.70
2022-09-01T08:06:43.502Z,20.20
2022-09-01T08:16:52.480Z,20.40
2022-09-01T08:26:55.042Z,20.60
2022-09-01T08:36:56.687Z,20.90
2022-09-01T08:47:05.007Z,21.10
2022-09-01T08:57:16.459Z,21.30
2022-09-01T09:07:39.696Z,21.60
2022-09-01T09:17:47.399Z,21.90
2022-09-01T09:28:00.443Z,22.10
2022-09-01T09:38:19.857Z,22.20
2022-09-01T09:48:29.633Z,22.30
2022-09-01T09:58:42.862Z,22.40
2022-09-01T10:08:45.787Z,22.70
2022-09-01T10:18:48.641Z,23.00
2022-09-01T10:29:05.079Z,23.20
2022-09-01T10:39:12.108Z,23.30
2022-09-01T10:49:33.716Z,23.50
2022-09-01T10:59:43.291Z,23.60
2022-09-01T11:10:11.767Z,23.90
2022-09-01T11:20:35.944Z,23.90
2022-09-01T11:30:55.238Z,23.80
2022-09-01T11:40:58.025Z,23.90
2022-09-01T11:51:02.260Z,24.10
2022-09-01T12:01:19.956Z,24.20
2022-09-01T12:11:31.019Z,24.20
2022-09-01T12:21:40.370Z,24.30
2022-09-01T12:31:44.924Z,24.50
2022-09-01T12:42:01.039Z,24.40
2022-09-01T12:52:12.100Z,24.30
2022-09-01T13:02:35.246Z,24.20
2022-09-01T13:12:41.957Z,24.10
2022-09-01T13:22:44.719Z,24.00
2022-09-01T13:43:09.567Z,24.00
2022-09-01T13:53:11.256Z,24.00
2022-09-01T14:03:20.834Z,24.10
2022-09-01T14:13:24.457Z,24.10
2022-09-01T14:23:26.126Z,24.10
2022-09-01T14:33:27.797Z,24.10
2022-09-01T14:43:31.731Z,24.10
2022-09-01T14:53:33.838Z,24.20
2022-09-01T15:03:35.798Z,24.30
2022-09-01T15:13:38.555Z,24.50
2022-09-01T15:23:40.200Z,24.70
2022-09-01T15:33:42.311Z,24.90
2022-09-01T15:43:44.220Z,24.90
2022-09-01T15:53:45.986Z,24.70
2022-09-01T16:03:48.201Z,24.70
2022-09-01T16:13:53.556Z,24.50
2022-09-01T16:23:55.275Z,24.40
2022-09-01T16:34:02.036Z,24.20
2022-09-01T16:44:18.225Z,24.20
2022-09-01T16:54:29.106Z,24.00
2022-09-01T17:05:02.700Z,23.90
2022-09-01T17:15:10.108Z,23.80
2022-09-01T17:25:21.859Z,23.70
2022-09-01T17:35:32.521Z,23.50
2022-09-01T17:45:45.644Z,23.40
2022-09-01T17:55:59.949Z,23.20
2022-09-01T18:06:15.147Z,23.10
2022-09-01T18:16:20.293Z,22.90
2022-09-01T18:26:32.437Z,22.80
2022-09-01T18:37:27.162Z,22.60
2022-09-01T18:47:41.819Z,22.40
2022-09-01T18:57:51.070Z,22.30
2022-09-01T19:07:56.754Z,22.10
2022-09-01T19:18:30.810Z,22.10
2022-09-01T19:28:41.260Z,22.00
2022-09-01T19:38:42.989Z,21.90
2022-09-01T19:48:58.171Z,21.80
2022-09-01T19:59:00.030Z,21.70
2022-09-01T20:09:17.550Z,21.50
2022-09-01T20:19:31.331Z,21.30
2022-09-01T20:30:00.531Z,21.20
2022-09-01T20:40:15.033Z,21.00
2022-09-01T20:50:19.291Z,20.90
2022-09-01T21:00:25.870Z,20.80
2022-09-01T21:11:00.846Z,20.60
2022-09-01T21:21:18.634Z,20.40
2022-09-01T21:31:20.559Z,20.30
2022-09-01T21:41:22.240Z,20.20
2022-09-01T21:51:23.993Z,20.10
2022-09-01T22:01:30.990Z,20.10
2022-09-01T22:11:32.841Z,20.00
2022-09-01T22:21:35.932Z,19.80
2022-09-01T22:31:39.061Z,19.60
2022-09-01T22:41:41.537Z,19.50
2022-09-01T22:51:44.039Z,19.40
2022-09-01T23:01:47.679Z,19.30
2022-09-01T23:11:50.406Z,19.10
2022-09-01T23:21:52.507Z,19.00
2022-09-01T23:31:54.203Z,18.70
2022-09-01T23:41:55.907Z,18.60
2022-09-01T23:51:57.969Z,18.50
